createdAt,value
2018-01-29T00:00:33.705Z,96977
2018-01-29T00:03:01.762Z,96977
2018-01-29T00:05:30.612Z,96964
2018-01-29T00:07:58.654Z,96975
2018-01-29T00:10:26.765Z,96971
2018-01-29T00:12:54.857Z,96968
2018-01-29T00:15:22.938Z,96971
2018-01-29T00:17:51.102Z,96964
2018-01-29T00:20:19.156Z,96964
2018-01-29T00:22:47.216Z,96971
2018-01-29T00:25:15.317Z,96952
2018-01-29T00:27:43.402Z,96950
2018-01-29T00:30:11.464Z,96956
2018-01-29T00:32:39.558Z,96955
2018-01-29T00:35:07.610Z,96967
2018-01-29T00:37:35.661Z,96971
2018-01-29T00:40:03.788Z,96970
2018-01-29T00:42:31.832Z,96963
2018-01-29T00:44:59.936Z,96966
2018-01-29T00:47:28.931Z,96954
2018-01-29T00:49:57.113Z,96949
2018-01-29T00:52:25.185Z,96961
2018-01-29T00:54:53.261Z,96951
2018-01-29T00:57:21.341Z,96950
2018-01-29T00:59:49.397Z,96955
2018-01-29T01:02:17.449Z,96945
2018-01-29T01:04:45.569Z,96951
2018-01-29T01:07:13.635Z,96956
2018-01-29T01:09:41.682Z,96942
2018-01-29T01:12:09.738Z,96944
2018-01-29T01:14:38.546Z,96945
2018-01-29T01:19:42.994Z,96952
2018-01-29T01:22:11.113Z,96941
2018-01-29T01:24:39.181Z,96931
2018-01-29T01:27:07.261Z,96937
2018-01-29T01:29:35.322Z,96946
2018-01-29T01:32:03.398Z,96939
2018-01-29T01:34:31.442Z,96941
2018-01-29T01:36:59.498Z,96938
2018-01-29T01:39:28.269Z,96929
2018-01-29T01:41:56.437Z,96941
2018-01-29T01:44:24.486Z,96930
2018-01-29T01:46:52.542Z,96928
2018-01-29T01:49:38.257Z,96933
2018-01-29T01:52:06.338Z,96939
2018-01-29T01:54:34.388Z,96934
2018-01-29T01:57:02.498Z,96938
2018-01-29T01:59:30.549Z,96936
2018-01-29T02:01:59.712Z,96924
2018-01-29T02:04:28.533Z,96933
2018-01-29T02:06:56.593Z,96932
2018-01-29T02:09:24.726Z,96932
2018-01-29T02:11:52.774Z,96942
2018-01-29T02:14:20.821Z,96933
2018-01-29T02:16:48.956Z,96932
2018-01-29T02:19:17.028Z,96930
2018-01-29T02:21:45.097Z,96919
2018-01-29T02:24:13.150Z,96926
2018-01-29T02:26:41.255Z,96911
2018-01-29T02:29:09.330Z,96900
2018-01-29T02:31:37.390Z,96910
2018-01-29T02:34:05.525Z,96906
2018-01-29T02:36:34.371Z,96900
2018-01-29T02:39:02.444Z,96898
2018-01-29T02:41:30.497Z,96894
2018-01-29T02:43:58.558Z,96889
2018-01-29T02:46:26.811Z,96876
2018-01-29T02:48:54.862Z,96880
2018-01-29T02:51:22.918Z,96890
2018-01-29T02:53:50.962Z,96875
2018-01-29T02:56:19.025Z,96879
2018-01-29T02:58:47.849Z,96870
2018-01-29T03:01:16.322Z,96882
2018-01-29T03:03:44.366Z,96879
2018-01-29T03:06:12.430Z,96881
2018-01-29T03:08:40.478Z,96867
2018-01-29T03:11:08.533Z,96882
2018-01-29T03:13:36.600Z,96869
2018-01-29T03:16:05.442Z,96874
2018-01-29T03:18:33.511Z,96879
2018-01-29T03:21:01.565Z,96872
2018-01-29T03:23:29.685Z,96872
2018-01-29T03:25:59.309Z,96862
2018-01-29T03:28:27.367Z,96870
2018-01-29T03:30:55.538Z,96871
2018-01-29T03:33:23.577Z,96877
2018-01-29T03:35:51.686Z,96878
2018-01-29T03:38:19.728Z,96871
2018-01-29T03:40:47.791Z,96877
2018-01-29T03:43:15.909Z,96871
2018-01-29T03:45:43.985Z,96864
2018-01-29T03:48:12.034Z,96859
2018-01-29T03:50:40.103Z,96874
2018-01-29T03:53:08.149Z,96860
2018-01-29T03:55:37.012Z,96874
2018-01-29T03:58:05.078Z,96876
2018-01-29T04:00:33.126Z,96867
2018-01-29T04:03:01.553Z,96873
2018-01-29T04:05:29.625Z,96873
2018-01-29T04:07:57.676Z,96874
2018-01-29T04:10:25.778Z,96881
2018-01-29T04:12:53.977Z,96873
2018-01-29T04:15:22.029Z,96875
2018-01-29T04:17:50.093Z,96881
2018-01-29T04:20:18.151Z,96887
2018-01-29T04:22:46.203Z,96885
2018-01-29T04:25:15.028Z,96893
2018-01-29T04:27:43.099Z,96896
2018-01-29T04:30:11.205Z,96891
2018-01-29T04:32:39.267Z,96887
2018-01-29T04:35:07.319Z,96885
2018-01-29T04:37:35.412Z,96890
2018-01-29T04:40:03.478Z,96884
2018-01-29T04:42:32.103Z,96894
2018-01-29T04:45:00.161Z,96895
2018-01-29T04:47:28.221Z,96895
2018-01-29T04:49:56.266Z,96897
2018-01-29T04:52:25.102Z,96890
2018-01-29T04:54:53.198Z,96893
2018-01-29T04:57:21.253Z,96890
2018-01-29T04:59:49.298Z,96895
2018-01-29T05:02:17.359Z,96891
2018-01-29T05:04:46.181Z,96903
2018-01-29T05:07:14.237Z,96890
2018-01-29T05:09:43.061Z,96898
2018-01-29T05:12:11.127Z,96894
2018-01-29T05:14:39.230Z,96893
2018-01-29T05:17:07.311Z,96903
2018-01-29T05:19:35.363Z,96892
2018-01-29T05:22:03.482Z,96886
2018-01-29T05:24:32.657Z,96881
2018-01-29T05:27:00.726Z,96890
2018-01-29T05:29:28.777Z,96898
2018-01-29T05:31:57.505Z,96884
2018-01-29T05:34:25.558Z,96878
2018-01-29T05:36:59.172Z,96869
2018-01-29T05:39:27.230Z,96876
2018-01-29T05:41:55.337Z,96878
2018-01-29T05:44:23.386Z,96864
2018-01-29T05:46:51.493Z,96878
2018-01-29T05:49:19.535Z,96875
2018-01-29T05:51:47.627Z,96873
2018-01-29T05:54:16.445Z,96872
2018-01-29T05:56:44.515Z,96885
2018-01-29T05:59:12.565Z,96879
2018-01-29T06:01:40.672Z,96876
2018-01-29T06:04:08.748Z,96874
2018-01-29T06:06:36.773Z,96876
2018-01-29T06:09:04.832Z,96883
2018-01-29T06:11:33.606Z,96879
2018-01-29T06:14:01.666Z,96878
2018-01-29T06:16:29.738Z,96880
2018-01-29T06:18:57.804Z,96892
2018-01-29T06:21:25.858Z,96898
2018-01-29T06:23:53.983Z,96904
2018-01-29T06:26:22.025Z,96907
2018-01-29T06:28:50.083Z,96917
2018-01-29T06:31:18.142Z,96911
2018-01-29T06:33:46.957Z,96918
2018-01-29T06:36:15.066Z,96918
2018-01-29T06:38:43.130Z,96915
2018-01-29T06:41:11.185Z,96911
2018-01-29T06:43:39.250Z,96901
2018-01-29T06:46:07.304Z,96912
2018-01-29T06:48:36.129Z,96900
2018-01-29T06:51:04.185Z,96900
2018-01-29T06:53:34.138Z,96899
2018-01-29T06:56:02.186Z,96902
2018-01-29T06:58:31.001Z,96902
2018-01-29T07:00:59.110Z,96892
2018-01-29T07:03:27.173Z,96895
2018-01-29T07:05:55.226Z,96902
2018-01-29T07:08:23.285Z,96897
2018-01-29T07:10:51.339Z,96894
2018-01-29T07:13:19.489Z,96899
2018-01-29T07:15:47.558Z,96907
2018-01-29T07:18:15.646Z,96904
2018-01-29T07:20:43.693Z,96907
2018-01-29T07:23:11.745Z,96909
2018-01-29T07:25:39.801Z,96906
2018-01-29T07:28:08.633Z,96906
2018-01-29T07:30:36.733Z,96904
2018-01-29T07:33:04.806Z,96903
2018-01-29T07:35:32.896Z,96910
2018-01-29T07:38:01.046Z,96912
2018-01-29T07:40:29.094Z,96910
2018-01-29T07:42:57.919Z,96903
2018-01-29T07:45:25.982Z,96897
2018-01-29T07:47:54.107Z,96912
2018-01-29T07:50:22.175Z,96906
2018-01-29T07:52:50.237Z,96893
2018-01-29T07:55:18.312Z,96894
2018-01-29T07:57:46.386Z,96888
2018-01-29T08:00:14.478Z,96886
2018-01-29T08:02:42.550Z,96895
2018-01-29T08:05:10.685Z,96892
2018-01-29T08:07:38.738Z,96888
2018-01-29T08:10:07.608Z,96872
2018-01-29T08:12:35.674Z,96875
2018-01-29T08:15:03.736Z,96876
2018-01-29T08:17:31.798Z,96881
2018-01-29T08:19:59.866Z,96871
2018-01-29T08:22:27.978Z,96865
2018-01-29T08:24:56.039Z,96860
2018-01-29T08:27:24.101Z,96857
2018-01-29T08:29:52.169Z,96853
2018-01-29T08:32:20.291Z,96848
2018-01-29T08:34:48.358Z,96856
2018-01-29T08:37:16.419Z,96855
2018-01-29T08:39:44.519Z,96844
2018-01-29T08:42:12.596Z,96832
2018-01-29T08:44:40.655Z,96828
2018-01-29T08:47:08.718Z,96822
2018-01-29T08:49:36.823Z,96817
2018-01-29T08:52:05.614Z,96822
2018-01-29T08:54:33.692Z,96824
2018-01-29T08:57:01.763Z,96815
2018-01-29T08:59:29.839Z,96825
2018-01-29T09:01:57.922Z,96814
2018-01-29T09:04:26.105Z,96809
2018-01-29T09:06:54.192Z,96818
2018-01-29T09:09:22.314Z,96816
2018-01-29T09:11:50.369Z,96807
2018-01-29T09:14:19.202Z,96815
2018-01-29T09:16:47.270Z,96813
2018-01-29T09:19:15.361Z,96804
2018-01-29T09:21:43.410Z,96802
2018-01-29T09:24:11.486Z,96803
2018-01-29T09:26:39.562Z,96795
2018-01-29T09:29:07.631Z,96789
2018-01-29T09:31:37.670Z,96792
2018-01-29T09:34:06.875Z,96799
2018-01-29T09:36:36.057Z,96798
2018-01-29T09:39:04.133Z,96783
2018-01-29T09:41:32.250Z,96795
2018-01-29T09:44:00.316Z,96800
2018-01-29T09:46:28.445Z,96798
2018-01-29T09:48:57.282Z,96788
2018-01-29T09:51:25.333Z,96782
2018-01-29T09:53:53.458Z,96771
2018-01-29T09:56:21.541Z,96778
2018-01-29T09:58:49.610Z,96782
2018-01-29T10:01:17.674Z,96778
2018-01-29T10:03:45.760Z,96766
2018-01-29T10:06:13.843Z,96751
2018-01-29T10:08:41.915Z,96751
2018-01-29T10:11:09.966Z,96750
2018-01-29T10:13:38.077Z,96736
2018-01-29T10:16:06.750Z,96746
2018-01-29T10:18:34.809Z,96747
2018-01-29T10:21:02.873Z,96760
2018-01-29T10:23:30.925Z,96748
2018-01-29T10:26:00.593Z,96734
2018-01-29T10:28:28.641Z,96742
2018-01-29T10:30:56.761Z,96726
2018-01-29T10:33:24.821Z,96727
2018-01-29T10:35:52.997Z,96723
2018-01-29T10:38:21.065Z,96725
2018-01-29T10:40:49.135Z,96704
2018-01-29T10:43:17.638Z,96698
2018-01-29T10:45:45.721Z,96693
2018-01-29T10:48:13.777Z,96691
2018-01-29T10:50:41.841Z,96687
2018-01-29T10:53:09.941Z,96685
2018-01-29T10:55:38.013Z,96680
2018-01-29T10:58:07.529Z,96679
2018-01-29T11:00:41.342Z,96683
2018-01-29T11:03:09.508Z,96668
2018-01-29T11:05:37.996Z,96670
2018-01-29T11:08:06.069Z,96659
2018-01-29T11:10:34.146Z,96650
2018-01-29T11:13:02.849Z,96643
2018-01-29T11:15:31.045Z,96649
2018-01-29T11:17:59.872Z,96634
2018-01-29T11:20:27.939Z,96624
2018-01-29T11:22:56.763Z,96629
2018-01-29T11:25:24.821Z,96604
2018-01-29T11:27:53.001Z,96608
2018-01-29T11:30:21.078Z,96602
2018-01-29T11:32:49.190Z,96591
2018-01-29T11:35:17.365Z,96577
2018-01-29T11:37:45.422Z,96593
2018-01-29T11:40:13.515Z,96582
2018-01-29T11:42:41.595Z,96584
2018-01-29T11:45:09.657Z,96560
2018-01-29T11:47:37.877Z,96574
2018-01-29T11:50:06.292Z,96559
2018-01-29T11:52:34.381Z,96560
2018-01-29T11:55:02.490Z,96553
2018-01-29T11:57:30.573Z,96546
2018-01-29T11:59:58.746Z,96555
2018-01-29T12:02:26.809Z,96543
2018-01-29T12:04:54.965Z,96524
2018-01-29T12:07:23.070Z,96538
2018-01-29T12:09:51.269Z,96526
2018-01-29T12:12:20.089Z,96514
2018-01-29T12:14:48.921Z,96502
2018-01-29T12:17:17.013Z,96503
2018-01-29T12:19:45.105Z,96507
2018-01-29T12:22:13.161Z,96497
2018-01-29T12:24:41.257Z,96499
2018-01-29T12:27:09.323Z,96504
2018-01-29T12:29:38.146Z,96492
2018-01-29T12:32:06.213Z,96483
2018-01-29T12:34:34.369Z,96480
2018-01-29T12:37:02.434Z,96473
2018-01-29T12:39:30.517Z,96462
2018-01-29T12:41:58.594Z,96457
2018-01-29T12:44:26.661Z,96455
2018-01-29T12:46:54.748Z,96454
2018-01-29T12:49:22.805Z,96445
2018-01-29T12:51:50.906Z,96447
2018-01-29T12:54:18.979Z,96439
2018-01-29T12:56:47.057Z,96440
2018-01-29T12:59:15.122Z,96424
2018-01-29T13:01:43.214Z,96419
2018-01-29T13:04:11.813Z,96423
2018-01-29T13:06:39.881Z,96408
2018-01-29T13:09:07.938Z,96405
2018-01-29T13:11:36.018Z,96409
2018-01-29T13:14:04.093Z,96396
2018-01-29T13:16:32.162Z,96405
2018-01-29T13:19:00.241Z,96395
2018-01-29T13:21:28.324Z,96394
2018-01-29T13:23:56.407Z,96389
2018-01-29T13:26:24.474Z,96387
2018-01-29T13:28:52.525Z,96387
2018-01-29T13:31:20.601Z,96385
2018-01-29T13:33:48.713Z,96384
2018-01-29T13:36:16.795Z,96373
2018-01-29T13:38:44.867Z,96374
2018-01-29T13:41:12.930Z,96372
2018-01-29T13:43:40.985Z,96363
2018-01-29T13:46:09.058Z,96358
2018-01-29T13:48:37.175Z,96364
2018-01-29T13:51:05.350Z,96357
2018-01-29T13:53:33.421Z,96358
2018-01-29T13:56:01.493Z,96363
2018-01-29T13:58:29.545Z,96353
2018-01-29T14:00:57.613Z,96349
2018-01-29T14:03:25.666Z,96357
2018-01-29T14:05:54.512Z,96352
2018-01-29T14:08:22.553Z,96337
2018-01-29T14:10:51.381Z,96346
2018-01-29T14:13:19.466Z,96345
2018-01-29T14:15:47.538Z,96344
2018-01-29T14:18:15.617Z,96340
2018-01-29T14:20:43.689Z,96341
2018-01-29T14:23:12.902Z,96331
2018-01-29T14:25:41.073Z,96331
2018-01-29T14:28:09.913Z,96325
2018-01-29T14:30:38.765Z,96316
2018-01-29T14:33:06.826Z,96319
2018-01-29T14:35:35.027Z,96319
2018-01-29T14:38:03.071Z,96314
2018-01-29T14:40:31.342Z,96313
2018-01-29T14:42:59.623Z,96318
2018-01-29T14:45:27.785Z,96304
2018-01-29T14:47:56.609Z,96305
2018-01-29T14:50:24.697Z,96298
2018-01-29T14:52:52.783Z,96302
2018-01-29T14:55:20.841Z,96305
2018-01-29T14:57:48.898Z,96295
2018-01-29T15:00:16.961Z,96292
2018-01-29T15:02:45.090Z,96280
2018-01-29T15:05:13.537Z,96290
2018-01-29T15:07:41.618Z,96282
2018-01-29T15:10:09.733Z,96272
2018-01-29T15:12:37.830Z,96280
2018-01-29T15:15:05.921Z,96275
2018-01-29T15:17:34.885Z,96272
2018-01-29T15:20:02.998Z,96280
2018-01-29T15:22:31.898Z,96274
2018-01-29T15:25:00.749Z,96270
2018-01-29T15:27:28.821Z,96269
2018-01-29T15:29:56.881Z,96268
2018-01-29T15:32:24.945Z,96271
2018-01-29T15:34:53.079Z,96262
2018-01-29T15:37:21.905Z,96274
2018-01-29T15:39:49.972Z,96277
2018-01-29T15:42:18.054Z,96275
2018-01-29T15:44:46.901Z,96276
2018-01-29T15:47:14.970Z,96273
2018-01-29T15:49:44.388Z,96275
2018-01-29T15:52:13.571Z,96277
2018-01-29T15:54:41.646Z,96268
2018-01-29T15:57:09.717Z,96282
2018-01-29T15:59:37.790Z,96279
2018-01-29T16:02:05.839Z,96275
2018-01-29T16:04:33.911Z,96271
2018-01-29T16:07:02.038Z,96281
2018-01-29T16:09:30.201Z,96278
2018-01-29T16:11:58.289Z,96270
2018-01-29T16:14:26.461Z,96278
2018-01-29T16:16:54.545Z,96278
2018-01-29T16:19:22.617Z,96275
2018-01-29T16:21:50.693Z,96267
2018-01-29T16:24:18.766Z,96269
2018-01-29T16:26:46.854Z,96272
2018-01-29T16:29:15.017Z,96268
2018-01-29T16:31:44.206Z,96284
2018-01-29T16:34:12.601Z,96266
2018-01-29T16:36:40.665Z,96261
2018-01-29T16:39:08.737Z,96260
2018-01-29T16:41:36.801Z,96259
2018-01-29T16:44:04.875Z,96258
2018-01-29T16:46:32.942Z,96261
2018-01-29T16:49:01.022Z,96273
2018-01-29T16:51:29.133Z,96270
2018-01-29T16:53:57.239Z,96277
2018-01-29T16:56:25.327Z,96278
2018-01-29T16:58:53.800Z,96273
2018-01-29T17:01:21.879Z,96277
2018-01-29T17:03:50.012Z,96277
2018-01-29T17:06:18.059Z,96273
2018-01-29T17:08:46.898Z,96270
2018-01-29T17:11:14.952Z,96279
2018-01-29T17:13:43.057Z,96276
2018-01-29T17:16:11.129Z,96265
2018-01-29T17:18:39.962Z,96272
2018-01-29T17:21:08.785Z,96277
2018-01-29T17:23:36.846Z,96272
2018-01-29T17:26:05.700Z,96267
2018-01-29T17:28:33.762Z,96276
2018-01-29T17:31:01.820Z,96270
2018-01-29T17:33:29.879Z,96270
2018-01-29T17:35:58.033Z,96274
2018-01-29T17:38:26.091Z,96266
2018-01-29T17:40:54.913Z,96270
2018-01-29T17:43:23.729Z,96264
2018-01-29T17:45:52.484Z,96266
2018-01-29T17:48:20.537Z,96289
2018-01-29T17:50:48.706Z,96287
2018-01-29T17:53:16.775Z,96283
2018-01-29T17:55:45.174Z,96290
2018-01-29T17:58:13.295Z,96296
2018-01-29T18:00:42.144Z,96293
2018-01-29T18:03:10.213Z,96289
2018-01-29T18:05:38.263Z,96309
2018-01-29T18:08:06.405Z,96304
2018-01-29T18:10:35.222Z,96310
2018-01-29T18:13:03.331Z,96310
2018-01-29T18:15:31.393Z,96316
2018-01-29T18:17:59.507Z,96307
2018-01-29T18:20:27.546Z,96314
2018-01-29T18:22:55.627Z,96310
2018-01-29T18:25:23.728Z,96305
2018-01-29T18:27:51.786Z,96314
2018-01-29T18:30:19.847Z,96311
2018-01-29T18:32:47.905Z,96312
2018-01-29T18:35:15.984Z,96311
2018-01-29T18:37:45.146Z,96329
2018-01-29T18:40:15.136Z,96330
2018-01-29T18:42:43.211Z,96325
2018-01-29T18:45:11.281Z,96340
2018-01-29T18:47:39.391Z,96334
2018-01-29T18:50:07.551Z,96342
2018-01-29T18:52:35.779Z,96329
2018-01-29T18:55:04.589Z,96331
2018-01-29T18:57:32.672Z,96334
2018-01-29T19:00:00.773Z,96330
2018-01-29T19:02:28.813Z,96325
2018-01-29T19:04:56.889Z,96328
2018-01-29T19:07:24.946Z,96317
2018-01-29T19:09:53.777Z,96310
2018-01-29T19:12:21.894Z,96330
2018-01-29T19:14:51.457Z,96334
2018-01-29T19:17:19.579Z,96329
2018-01-29T19:19:47.710Z,96327
2018-01-29T19:22:15.808Z,96342
2018-01-29T19:24:43.903Z,96348
2018-01-29T19:27:11.995Z,96346
2018-01-29T19:29:40.112Z,96354
2018-01-29T19:32:08.208Z,96363
2018-01-29T19:34:36.348Z,96347
2018-01-29T19:37:05.205Z,96346
2018-01-29T19:39:33.262Z,96349
2018-01-29T19:42:01.479Z,96373
2018-01-29T19:44:30.293Z,96362
2018-01-29T19:46:58.408Z,96372
2018-01-29T19:49:26.458Z,96373
2018-01-29T19:51:54.577Z,96376
2018-01-29T19:54:22.649Z,96372
2018-01-29T19:56:50.768Z,96390
2018-01-29T19:59:19.615Z,96350
2018-01-29T20:01:47.959Z,96380
2018-01-29T20:04:16.823Z,96389
2018-01-29T20:06:45.768Z,96397
2018-01-29T20:09:13.852Z,96405
2018-01-29T20:11:41.956Z,96392
2018-01-29T20:14:10.065Z,96392
2018-01-29T20:16:38.928Z,96400
2018-01-29T20:19:07.038Z,96405
2018-01-29T20:21:35.919Z,96377
2018-01-29T20:24:04.537Z,96390
2018-01-29T20:26:33.396Z,96382
2018-01-29T20:29:01.484Z,96387
2018-01-29T20:31:29.665Z,96395
2018-01-29T20:33:58.549Z,96401
2018-01-29T20:36:26.731Z,96406
2018-01-29T20:38:55.636Z,96403
2018-01-29T20:41:24.512Z,96428
2018-01-29T20:43:52.686Z,96411
2018-01-29T20:46:20.839Z,96428
2018-01-29T20:48:48.932Z,96433
2018-01-29T20:51:17.205Z,96431
2018-01-29T20:53:46.720Z,96433
2018-01-29T20:56:15.877Z,96447
2018-01-29T20:58:43.981Z,96438
2018-01-29T21:01:12.088Z,96439
2018-01-29T21:03:40.192Z,96441
2018-01-29T21:06:09.086Z,96439
2018-01-29T21:08:37.977Z,96444
2018-01-29T21:11:06.133Z,96423
2018-01-29T21:13:34.232Z,96424
2018-01-29T21:16:03.128Z,96416
2018-01-29T21:18:31.997Z,96462
2018-01-29T21:21:00.040Z,96434
2018-01-29T21:23:28.085Z,96436
2018-01-29T21:25:56.181Z,96429
2018-01-29T21:28:24.272Z,96423
2018-01-29T21:30:52.356Z,96439
2018-01-29T21:33:20.409Z,96444
2018-01-29T21:35:48.581Z,96456
2018-01-29T21:38:16.682Z,96468
2018-01-29T21:40:44.746Z,96452
2018-01-29T21:43:12.857Z,96451
2018-01-29T21:45:40.915Z,96486
2018-01-29T21:48:08.965Z,96468
2018-01-29T21:50:37.031Z,96484
2018-01-29T21:53:05.077Z,96490
2018-01-29T21:55:33.976Z,96475
2018-01-29T21:58:02.068Z,96476
2018-01-29T22:00:30.879Z,96487
2018-01-29T22:02:58.981Z,96489
2018-01-29T22:05:27.109Z,96491
2018-01-29T22:07:55.946Z,96488
2018-01-29T22:10:24.304Z,96469
2018-01-29T22:12:52.464Z,96475
2018-01-29T22:15:21.276Z,96488
2018-01-29T22:17:49.313Z,96471
2018-01-29T22:20:18.223Z,96502
2018-01-29T22:22:46.449Z,96486
2018-01-29T22:25:14.555Z,96506
2018-01-29T22:27:42.652Z,96522
2018-01-29T22:30:10.848Z,96499
2018-01-29T22:32:39.691Z,96505
2018-01-29T22:35:07.776Z,96507
2018-01-29T22:37:35.822Z,96501
2018-01-29T22:40:03.911Z,96496
2018-01-29T22:42:31.921Z,96506
2018-01-29T22:45:00.749Z,96496
2018-01-29T22:47:28.856Z,96503
2018-01-29T22:49:56.963Z,96506
2018-01-29T22:52:25.022Z,96502
2018-01-29T22:54:53.092Z,96504
2018-01-29T22:57:21.162Z,96506
2018-01-29T22:59:49.207Z,96507
2018-01-29T23:02:17.282Z,96502
2018-01-29T23:04:46.492Z,96513
2018-01-29T23:07:14.533Z,96509
2018-01-29T23:09:43.377Z,96501
2018-01-29T23:12:11.419Z,96498
2018-01-29T23:14:39.520Z,96484
2018-01-29T23:17:07.584Z,96469
2018-01-29T23:19:35.634Z,96472
2018-01-29T23:22:04.486Z,96470
2018-01-29T23:24:32.604Z,96465
2018-01-29T23:27:00.649Z,96484
2018-01-29T23:29:28.713Z,96490
2018-01-29T23:31:56.811Z,96467
2018-01-29T23:34:24.852Z,96485
2018-01-29T23:36:52.954Z,96491
2018-01-29T23:39:21.017Z,96497
2018-01-29T23:41:49.079Z,96502
2018-01-29T23:44:17.131Z,96497
2018-01-29T23:46:45.274Z,96494
2018-01-29T23:49:13.317Z,96489
2018-01-29T23:51:41.395Z,96500
2018-01-29T23:54:09.473Z,96495
2018-01-29T23:56:37.552Z,96475
2018-01-29T23:59:05.594Z,96486
